sensor_id;sensor_type;location;lat;lon;timestamp;pressure;altitude;pressure_sealevel;temperature;humidity
23176;BME280;19910;42.652;23.332;2023-02-04T00:02:24;94443.53;;;0.62;87.17
23176;BME280;19910;42.652;23.332;2023-02-04T00:04:51;94439.28;;;0.51;88.40
23176;BME280;19910;42.652;23.332;2023-02-04T00:07:18;94447.81;;;0.53;89.15
23176;BME280;19910;42.652;23.332;2023-02-04T00:09:45;94444.34;;;0.48;89.72
23176;BME280;19910;42.652;23.332;2023-02-04T00:12:13;94427.78;;;0.56;89.83
23176;BME280;19910;42.652;23.332;2023-02-04T00:14:40;94432.63;;;0.49;89.98
23176;BME280;19910;42.652;23.332;2023-02-04T00:17:07;94435.81;;;0.46;91.18
23176;BME280;19910;42.652;23.332;2023-02-04T00:19:35;94432.34;;;0.45;91.80
23176;BME280;19910;42.652;23.332;2023-02-04T00:22:02;94414.22;;;0.42;92.37
23176;BME280;19910;42.652;23.332;2023-02-04T00:24:29;94428.66;;;0.31;93.60
23176;BME280;19910;42.652;23.332;2023-02-04T00:26:56;94429.19;;;0.38;94.21
23176;BME280;19910;42.652;23.332;2023-02-04T00:29:25;94419.06;;;0.35;94.36
23176;BME280;19910;42.652;23.332;2023-02-04T00:31:54;94414.81;;;0.24;94.90
23176;BME280;19910;42.652;23.332;2023-02-04T00:34:20;94403.06;;;0.35;95.48
23176;BME280;19910;42.652;23.332;2023-02-04T00:36:47;94412.94;;;0.34;95.25
23176;BME280;19910;42.652;23.332;2023-02-04T00:39:14;94415.09;;;0.22;95.56
23176;BME280;19910;42.652;23.332;2023-02-04T00:41:41;94422.53;;;0.41;95.93
23176;BME280;19910;42.652;23.332;2023-02-04T00:44:07;94421.22;;;0.23;95.78
23176;BME280;19910;42.652;23.332;2023-02-04T00:46:36;94422.25;;;0.37;96.48
23176;BME280;19910;42.652;23.332;2023-02-04T00:49:02;94422.75;;;0.44;95.97
23176;BME280;19910;42.652;23.332;2023-02-04T00:51:30;94418.53;;;0.38;95.90
23176;BME280;19910;42.652;23.332;2023-02-04T00:53:57;94400.41;;;0.30;96.14
23176;BME280;19910;42.652;23.332;2023-02-04T00:56:24;94406.28;;;0.37;96.43
23176;BME280;19910;42.652;23.332;2023-02-04T00:58:51;94400.38;;;0.50;96.16
23176;BME280;19910;42.652;23.332;2023-02-04T01:01:17;94391.31;;;0.41;95.54
23176;BME280;19910;42.652;23.332;2023-02-04T01:03:46;94397.47;;;0.31;96.32
23176;BME280;19910;42.652;23.332;2023-02-04T01:06:12;94382.25;;;0.52;96.43
23176;BME280;19910;42.652;23.332;2023-02-04T01:08:39;94376.94;;;0.52;95.72
23176;BME280;19910;42.652;23.332;2023-02-04T01:11:06;94379.09;;;0.40;95.59
23176;BME280;19910;42.652;23.332;2023-02-04T01:13:32;94373.25;;;0.33;95.73
23176;BME280;19910;42.652;23.332;2023-02-04T01:15:59;94360.72;;;0.39;96.23
23176;BME280;19910;42.652;23.332;2023-02-04T01:18:26;94361.22;;;0.46;96.21
23176;BME280;19910;42.652;23.332;2023-02-04T01:20:54;94348.16;;;0.49;95.34
23176;BME280;19910;42.652;23.332;2023-02-04T01:23:21;94346.59;;;0.33;95.88
23176;BME280;19910;42.652;23.332;2023-02-04T01:25:47;94346.03;;;0.46;96.19
23176;BME280;19910;42.652;23.332;2023-02-04T01:28:14;94349.28;;;0.28;95.90
23176;BME280;19910;42.652;23.332;2023-02-04T01:30:41;94347.94;;;0.30;96.13
23176;BME280;19910;42.652;23.332;2023-02-04T01:33:07;94340.69;;;0.46;95.76
23176;BME280;19910;42.652;23.332;2023-02-04T01:35:34;94334.91;;;0.24;96.00
23176;BME280;19910;42.652;23.332;2023-02-04T01:38:02;94338.38;;;0.24;96.34
23176;BME280;19910;42.652;23.332;2023-02-04T01:40:29;94340.22;;;0.39;96.24
23176;BME280;19910;42.652;23.332;2023-02-04T01:42:57;94327.72;;;0.24;96.47
23176;BME280;19910;42.652;23.332;2023-02-04T01:45:23;94328.50;;;0.30;96.63
23176;BME280;19910;42.652;23.332;2023-02-04T01:47:50;94332.44;;;0.48;95.80
23176;BME280;19910;42.652;23.332;2023-02-04T01:50:17;94325.25;;;0.43;95.30
23176;BME280;19910;42.652;23.332;2023-02-04T01:52:45;94313.53;;;0.49;95.15
23176;BME280;19910;42.652;23.332;2023-02-04T01:55:16;94327.91;;;0.48;94.83
23176;BME280;19910;42.652;23.332;2023-02-04T01:57:43;94302.13;;;0.39;94.93
23176;BME280;19910;42.652;23.332;2023-02-04T02:00:14;94317.75;;;0.60;94.67
23176;BME280;19910;42.652;23.332;2023-02-04T02:02:44;94308.19;;;0.49;93.87
23176;BME280;19910;42.652;23.332;2023-02-04T02:05:14;94306.66;;;0.38;94.10
23176;BME280;19910;42.652;23.332;2023-02-04T02:07:42;94310.28;;;0.57;94.12
23176;BME280;19910;42.652;23.332;2023-02-04T02:10:11;94300.25;;;0.29;93.76
23176;BME280;19910;42.652;23.332;2023-02-04T02:12:40;94299.19;;;0.35;94.52
23176;BME280;19910;42.652;23.332;2023-02-04T02:15:12;94281.59;;;0.39;94.01
23176;BME280;19910;42.652;23.332;2023-02-04T02:17:39;94290.63;;;0.48;93.52
23176;BME280;19910;42.652;23.332;2023-02-04T02:20:07;94290.56;;;0.63;93.56
23176;BME280;19910;42.652;23.332;2023-02-04T02:22:38;94284.16;;;0.64;93.36
23176;BME280;19910;42.652;23.332;2023-02-04T02:25:11;94258.06;;;0.56;92.33
23176;BME280;19910;42.652;23.332;2023-02-04T02:27:39;94273.56;;;0.49;92.79
23176;BME280;19910;42.652;23.332;2023-02-04T02:30:09;94271.84;;;0.68;93.04
23176;BME280;19910;42.652;23.332;2023-02-04T02:32:37;94266.31;;;0.60;92.52
23176;BME280;19910;42.652;23.332;2023-02-04T02:35:05;94226.16;;;0.41;92.69
23176;BME280;19910;42.652;23.332;2023-02-04T02:37:33;94236.03;;;0.41;92.87
23176;BME280;19910;42.652;23.332;2023-02-04T02:40:00;94227.19;;;0.50;92.98
23176;BME280;19910;42.652;23.332;2023-02-04T02:42:29;94230.34;;;0.57;93.34
23176;BME280;19910;42.652;23.332;2023-02-04T02:44:56;94207.31;;;0.32;93.03
23176;BME280;19910;42.652;23.332;2023-02-04T02:47:24;94205.75;;;0.26;93.11
23176;BME280;19910;42.652;23.332;2023-02-04T02:49:53;94211.78;;;0.42;93.26
23176;BME280;19910;42.652;23.332;2023-02-04T02:52:20;94211.22;;;0.50;93.23
23176;BME280;19910;42.652;23.332;2023-02-04T02:54:48;94216.16;;;0.18;93.17
23176;BME280;19910;42.652;23.332;2023-02-04T02:57:15;94205.00;;;0.11;93.54
23176;BME280;19910;42.652;23.332;2023-02-04T02:59:44;94202.22;;;0.36;94.07
23176;BME280;19910;42.652;23.332;2023-02-04T03:02:13;94196.44;;;0.19;93.22
23176;BME280;19910;42.652;23.332;2023-02-04T03:04:43;94212.72;;;0.12;93.92
23176;BME280;19910;42.652;23.332;2023-02-04T03:07:11;94211.91;;;0.17;93.84
23176;BME280;19910;42.652;23.332;2023-02-04T03:09:39;94200.97;;;0.23;93.41
23176;BME280;19910;42.652;23.332;2023-02-04T03:12:06;94211.84;;;0.32;92.87
23176;BME280;19910;42.652;23.332;2023-02-04T03:14:34;94214.97;;;0.44;92.86
23176;BME280;19910;42.652;23.332;2023-02-04T03:17:06;94229.69;;;0.31;92.59
23176;BME280;19910;42.652;23.332;2023-02-04T03:19:37;94215.56;;;0.31;92.68
23176;BME280;19910;42.652;23.332;2023-02-04T03:22:06;94214.53;;;0.27;92.96
23176;BME280;19910;42.652;23.332;2023-02-04T03:24:34;94218.69;;;0.43;93.22
23176;BME280;19910;42.652;23.332;2023-02-04T03:27:01;94212.75;;;0.56;92.78
23176;BME280;19910;42.652;23.332;2023-02-04T03:29:28;94196.22;;;0.59;91.61
23176;BME280;19910;42.652;23.332;2023-02-04T03:31:54;94210.63;;;0.58;91.62
23176;BME280;19910;42.652;23.332;2023-02-04T03:34:25;94211.47;;;0.54;91.67
23176;BME280;19910;42.652;23.332;2023-02-04T03:36:52;94204.75;;;0.61;91.92
23176;BME280;19910;42.652;23.332;2023-02-04T03:39:19;94204.13;;;0.75;91.69
23176;BME280;19910;42.652;23.332;2023-02-04T03:41:46;94204.06;;;0.85;90.64
23176;BME280;19910;42.652;23.332;2023-02-04T03:44:15;94200.81;;;0.93;89.83
23176;BME280;19910;42.652;23.332;2023-02-04T03:46:43;94203.38;;;1.08;89.45
23176;BME280;19910;42.652;23.332;2023-02-04T03:49:09;94174.03;;;1.08;88.63
23176;BME280;19910;42.652;23.332;2023-02-04T03:51:37;94150.19;;;0.88;88.68
23176;BME280;19910;42.652;23.332;2023-02-04T03:54:06;94162.19;;;1.19;88.06
23176;BME280;19910;42.652;23.332;2023-02-04T03:56:32;94161.72;;;1.12;87.23
23176;BME280;19910;42.652;23.332;2023-02-04T03:58:59;94161.72;;;1.12;87.87
23176;BME280;19910;42.652;23.332;2023-02-04T04:01:26;94155.94;;;1.05;87.66
23176;BME280;19910;42.652;23.332;2023-02-04T04:03:52;94139.50;;;0.93;87.98
23176;BME280;19910;42.652;23.332;2023-02-04T04:06:19;94141.41;;;1.16;88.19
23176;BME280;19910;42.652;23.332;2023-02-04T04:08:47;94125.19;;;1.13;87.22
23176;BME280;19910;42.652;23.332;2023-02-04T04:11:14;94114.91;;;0.96;87.90
23176;BME280;19910;42.652;23.332;2023-02-04T04:13:41;94117.56;;;1.01;88.21
23176;BME280;19910;42.652;23.332;2023-02-04T04:16:07;94119.78;;;0.89;88.02
23176;BME280;19910;42.652;23.332;2023-02-04T04:18:34;94109.59;;;0.96;88.35
23176;BME280;19910;42.652;23.332;2023-02-04T04:21:01;94104.91;;;0.83;88.46
23176;BME280;19910;42.652;23.332;2023-02-04T04:23:28;94111.38;;;0.77;89.19
23176;BME280;19910;42.652;23.332;2023-02-04T04:25:58;94112.47;;;0.70;89.74
23176;BME280;19910;42.652;23.332;2023-02-04T04:28:25;94109.44;;;0.82;90.47
23176;BME280;19910;42.652;23.332;2023-02-04T04:30:55;94117.44;;;1.11;89.56
23176;BME280;19910;42.652;23.332;2023-02-04T04:33:21;94129.81;;;1.02;88.62
23176;BME280;19910;42.652;23.332;2023-02-04T04:35:50;94130.09;;;1.00;88.68
23176;BME280;19910;42.652;23.332;2023-02-04T04:38:17;94137.84;;;0.97;88.74
23176;BME280;19910;42.652;23.332;2023-02-04T04:40:44;94153.78;;;1.07;89.15
23176;BME280;19910;42.652;23.332;2023-02-04T04:43:12;94127.28;;;1.16;88.51
23176;BME280;19910;42.652;23.332;2023-02-04T04:45:43;94153.66;;;1.22;88.19
23176;BME280;19910;42.652;23.332;2023-02-04T04:48:10;94154.56;;;1.08;88.27
23176;BME280;19910;42.652;23.332;2023-02-04T04:50:37;94163.41;;;1.03;88.90
23176;BME280;19910;42.652;23.332;2023-02-04T04:53:04;94152.66;;;1.13;89.21
23176;BME280;19910;42.652;23.332;2023-02-04T04:55:35;94161.16;;;1.15;88.36
23176;BME280;19910;42.652;23.332;2023-02-04T04:58:02;94164.91;;;1.14;88.71
23176;BME280;19910;42.652;23.332;2023-02-04T05:00:30;94159.34;;;1.39;89.26
23176;BME280;19910;42.652;23.332;2023-02-04T05:02:57;94158.91;;;1.27;88.72
23176;BME280;19910;42.652;23.332;2023-02-04T05:05:24;94162.19;;;1.48;88.61
23176;BME280;19910;42.652;23.332;2023-02-04T05:07:50;94141.97;;;1.42;88.07
23176;BME280;19910;42.652;23.332;2023-02-04T05:10:18;94146.25;;;1.67;88.21
23176;BME280;19910;42.652;23.332;2023-02-04T05:12:45;94147.25;;;2.19;86.51
23176;BME280;19910;42.652;23.332;2023-02-04T05:15:12;94137.94;;;2.54;85.04
23176;BME280;19910;42.652;23.332;2023-02-04T05:17:40;94149.63;;;2.76;84.16
23176;BME280;19910;42.652;23.332;2023-02-04T05:20:08;94147.88;;;3.04;82.64
23176;BME280;19910;42.652;23.332;2023-02-04T05:22:35;94154.59;;;3.02;82.79
23176;BME280;19910;42.652;23.332;2023-02-04T05:25:01;94163.69;;;3.01;83.32
23176;BME280;19910;42.652;23.332;2023-02-04T05:27:28;94162.72;;;2.97;83.71
23176;BME280;19910;42.652;23.332;2023-02-04T05:29:55;94159.47;;;3.00;83.55
23176;BME280;19910;42.652;23.332;2023-02-04T05:32:22;94171.66;;;3.06;82.60
23176;BME280;19910;42.652;23.332;2023-02-04T05:34:50;94185.09;;;3.01;82.83
23176;BME280;19910;42.652;23.332;2023-02-04T05:37:16;94189.53;;;2.92;83.55
23176;BME280;19910;42.652;23.332;2023-02-04T05:39:45;94193.66;;;2.84;84.49
23176;BME280;19910;42.652;23.332;2023-02-04T05:42:12;94209.78;;;2.79;84.97
23176;BME280;19910;42.652;23.332;2023-02-04T05:44:38;94211.16;;;2.76;85.19
23176;BME280;19910;42.652;23.332;2023-02-04T05:47:05;94211.88;;;2.63;86.62
23176;BME280;19910;42.652;23.332;2023-02-04T05:49:32;94210.44;;;2.71;84.77
23176;BME280;19910;42.652;23.332;2023-02-04T05:52:00;94220.06;;;2.72;85.73
23176;BME280;19910;42.652;23.332;2023-02-04T05:54:27;94228.97;;;2.62;86.23
23176;BME280;19910;42.652;23.332;2023-02-04T05:56:53;94206.00;;;2.61;85.70
23176;BME280;19910;42.652;23.332;2023-02-04T05:59:20;94189.47;;;2.59;84.96
23176;BME280;19910;42.652;23.332;2023-02-04T06:01:47;94181.94;;;2.61;84.94
23176;BME280;19910;42.652;23.332;2023-02-04T06:04:14;94169.22;;;2.53;84.70
23176;BME280;19910;42.652;23.332;2023-02-04T06:06:40;94177.75;;;2.55;83.29
23176;BME280;19910;42.652;23.332;2023-02-04T06:09:09;94177.09;;;2.63;81.91
23176;BME280;19910;42.652;23.332;2023-02-04T06:11:36;94174.28;;;2.73;81.16
23176;BME280;19910;42.652;23.332;2023-02-04T06:14:03;94171.38;;;2.89;79.67
23176;BME280;19910;42.652;23.332;2023-02-04T06:16:29;94192.66;;;3.64;76.08
23176;BME280;19910;42.652;23.332;2023-02-04T06:18:56;94184.53;;;3.69;75.56
23176;BME280;19910;42.652;23.332;2023-02-04T06:21:23;94188.34;;;3.95;74.67
23176;BME280;19910;42.652;23.332;2023-02-04T06:23:49;94183.00;;;4.22;72.93
23176;BME280;19910;42.652;23.332;2023-02-04T06:26:18;94186.34;;;3.87;73.38
23176;BME280;19910;42.652;23.332;2023-02-04T06:28:44;94189.31;;;3.85;74.42
23176;BME280;19910;42.652;23.332;2023-02-04T06:31:11;94188.63;;;3.80;74.63
23176;BME280;19910;42.652;23.332;2023-02-04T06:33:38;94195.91;;;3.61;74.41
23176;BME280;19910;42.652;23.332;2023-02-04T06:36:05;94189.25;;;3.58;75.26
23176;BME280;19910;42.652;23.332;2023-02-04T06:38:32;94201.09;;;3.71;74.77
23176;BME280;19910;42.652;23.332;2023-02-04T06:40:58;94196.03;;;3.69;73.82
23176;BME280;19910;42.652;23.332;2023-02-04T06:43:27;94194.16;;;3.70;74.00
23176;BME280;19910;42.652;23.332;2023-02-04T06:45:53;94193.06;;;3.71;72.77
23176;BME280;19910;42.652;23.332;2023-02-04T06:48:20;94196.03;;;3.83;73.00
23176;BME280;19910;42.652;23.332;2023-02-04T06:50:47;94192.63;;;3.96;72.68
23176;BME280;19910;42.652;23.332;2023-02-04T06:53:15;94186.75;;;4.21;71.30
23176;BME280;19910;42.652;23.332;2023-02-04T06:55:43;94190.13;;;4.27;70.94
23176;BME280;19910;42.652;23.332;2023-02-04T06:58:10;94190.22;;;4.49;70.38
23176;BME280;19910;42.652;23.332;2023-02-04T07:00:38;94178.31;;;4.91;68.97
23176;BME280;19910;42.652;23.332;2023-02-04T07:03:05;94173.81;;;5.23;68.38
23176;BME280;19910;42.652;23.332;2023-02-04T07:05:32;94180.88;;;4.96;68.42
23176;BME280;19910;42.652;23.332;2023-02-04T07:07:59;94174.19;;;4.72;68.58
23176;BME280;19910;42.652;23.332;2023-02-04T07:10:26;94170.22;;;4.69;68.47
23176;BME280;19910;42.652;23.332;2023-02-04T07:12:53;94175.44;;;4.88;68.63
23176;BME280;19910;42.652;23.332;2023-02-04T07:15:19;94160.81;;;4.80;68.62
23176;BME280;19910;42.652;23.332;2023-02-04T07:17:47;94155.97;;;4.82;68.92
23176;BME280;19910;42.652;23.332;2023-02-04T07:20:14;94165.09;;;4.81;68.37
23176;BME280;19910;42.652;23.332;2023-02-04T07:22:41;94172.41;;;4.67;68.96
23176;BME280;19910;42.652;23.332;2023-02-04T07:25:09;94165.84;;;4.73;68.74
23176;BME280;19910;42.652;23.332;2023-02-04T07:27:39;94163.44;;;4.72;69.08
23176;BME280;19910;42.652;23.332;2023-02-04T07:30:07;94152.19;;;4.83;68.59
23176;BME280;19910;42.652;23.332;2023-02-04T07:32:34;94140.34;;;4.84;68.14
23176;BME280;19910;42.652;23.332;2023-02-04T07:35:02;94141.94;;;4.85;67.92
23176;BME280;19910;42.652;23.332;2023-02-04T07:37:29;94151.25;;;5.02;67.85
23176;BME280;19910;42.652;23.332;2023-02-04T07:39:56;94146.16;;;5.22;66.47
23176;BME280;19910;42.652;23.332;2023-02-04T07:42:23;94154.41;;;5.04;67.31
23176;BME280;19910;42.652;23.332;2023-02-04T07:44:49;94137.25;;;5.13;67.14
23176;BME280;19910;42.652;23.332;2023-02-04T07:47:16;94135.34;;;5.36;67.17
23176;BME280;19910;42.652;23.332;2023-02-04T07:49:43;94145.16;;;5.63;65.91
23176;BME280;19910;42.652;23.332;2023-02-04T07:52:11;94146.91;;;5.67;65.54
23176;BME280;19910;42.652;23.332;2023-02-04T07:54:38;94144.72;;;5.69;65.80
23176;BME280;19910;42.652;23.332;2023-02-04T07:57:05;94145.59;;;5.56;65.72
23176;BME280;19910;42.652;23.332;2023-02-04T07:59:31;94148.91;;;5.53;65.50
23176;BME280;19910;42.652;23.332;2023-02-04T08:01:58;94158.72;;;5.35;65.71
23176;BME280;19910;42.652;23.332;2023-02-04T08:04:26;94141.44;;;5.50;66.00
23176;BME280;19910;42.652;23.332;2023-02-04T08:06:52;94147.19;;;5.57;65.79
23176;BME280;19910;42.652;23.332;2023-02-04T08:09:21;94158.41;;;5.59;66.44
23176;BME280;19910;42.652;23.332;2023-02-04T08:11:48;94151.97;;;5.16;66.13
23176;BME280;19910;42.652;23.332;2023-02-04T08:14:15;94161.06;;;5.28;66.47
23176;BME280;19910;42.652;23.332;2023-02-04T08:16:41;94159.22;;;5.15;66.20
23176;BME280;19910;42.652;23.332;2023-02-04T08:19:08;94164.91;;;5.14;66.71
23176;BME280;19910;42.652;23.332;2023-02-04T08:21:35;94164.31;;;5.17;66.88
23176;BME280;19910;42.652;23.332;2023-02-04T08:24:01;94170.25;;;4.91;67.63
23176;BME280;19910;42.652;23.332;2023-02-04T08:26:30;94152.22;;;5.06;67.80
23176;BME280;19910;42.652;23.332;2023-02-04T08:28:56;94160.38;;;5.00;67.95
23176;BME280;19910;42.652;23.332;2023-02-04T08:31:23;94150.06;;;4.94;67.46
23176;BME280;19910;42.652;23.332;2023-02-04T08:33:50;94151.34;;;4.96;68.00
23176;BME280;19910;42.652;23.332;2023-02-04T08:36:16;94151.03;;;5.20;67.32
23176;BME280;19910;42.652;23.332;2023-02-04T08:38:43;94132.38;;;5.38;67.99
23176;BME280;19910;42.652;23.332;2023-02-04T08:41:11;94138.66;;;5.11;67.42
23176;BME280;19910;42.652;23.332;2023-02-04T08:43:39;94137.47;;;5.17;68.04
23176;BME280;19910;42.652;23.332;2023-02-04T08:46:06;94144.63;;;5.08;68.57
23176;BME280;19910;42.652;23.332;2023-02-04T08:48:33;94139.50;;;4.97;69.48
23176;BME280;19910;42.652;23.332;2023-02-04T08:50:59;94130.38;;;4.98;69.25
23176;BME280;19910;42.652;23.332;2023-02-04T08:53:26;94128.41;;;4.90;68.97
23176;BME280;19910;42.652;23.332;2023-02-04T08:55:53;94124.50;;;4.74;69.83
23176;BME280;19910;42.652;23.332;2023-02-04T08:58:20;94135.97;;;4.88;70.63
23176;BME280;19910;42.652;23.332;2023-02-04T09:00:48;94136.81;;;4.97;69.90
23176;BME280;19910;42.652;23.332;2023-02-04T09:03:15;94144.38;;;4.95;69.76
23176;BME280;19910;42.652;23.332;2023-02-04T09:05:41;94133.50;;;4.92;69.29
23176;BME280;19910;42.652;23.332;2023-02-04T09:08:08;94121.88;;;4.83;68.52
23176;BME280;19910;42.652;23.332;2023-02-04T09:10:35;94124.50;;;4.96;68.50
23176;BME280;19910;42.652;23.332;2023-02-04T09:13:02;94128.19;;;5.00;67.72
23176;BME280;19910;42.652;23.332;2023-02-04T09:15:29;94120.47;;;5.08;66.96
23176;BME280;19910;42.652;23.332;2023-02-04T09:17:57;94131.22;;;5.30;66.96
23176;BME280;19910;42.652;23.332;2023-02-04T09:20:29;94137.47;;;5.17;67.28
23176;BME280;19910;42.652;23.332;2023-02-04T09:22:56;94133.41;;;5.28;66.68
23176;BME280;19910;42.652;23.332;2023-02-04T09:25:22;94113.88;;;5.36;66.07
23176;BME280;19910;42.652;23.332;2023-02-04T09:27:49;94120.41;;;5.44;66.24
23176;BME280;19910;42.652;23.332;2023-02-04T09:30:16;94131.22;;;5.61;65.53
23176;BME280;19910;42.652;23.332;2023-02-04T09:32:43;94122.34;;;5.52;65.48
23176;BME280;19910;42.652;23.332;2023-02-04T09:35:11;94138.91;;;5.45;66.15
23176;BME280;19910;42.652;23.332;2023-02-04T09:37:38;94126.75;;;5.25;67.92
23176;BME280;19910;42.652;23.332;2023-02-04T09:40:05;94119.75;;;5.16;69.42
23176;BME280;19910;42.652;23.332;2023-02-04T09:42:32;94130.88;;;5.00;70.12
23176;BME280;19910;42.652;23.332;2023-02-04T09:44:59;94126.59;;;4.99;70.31
23176;BME280;19910;42.652;23.332;2023-02-04T09:47:27;94126.84;;;5.12;70.75
23176;BME280;19910;42.652;23.332;2023-02-04T09:49:55;94125.38;;;5.06;71.95
23176;BME280;19910;42.652;23.332;2023-02-04T09:52:24;94111.09;;;4.96;72.69
23176;BME280;19910;42.652;23.332;2023-02-04T09:54:53;94114.13;;;4.81;73.63
23176;BME280;19910;42.652;23.332;2023-02-04T09:57:19;94110.00;;;4.75;75.63
23176;BME280;19910;42.652;23.332;2023-02-04T09:59:46;94101.41;;;4.87;75.50
23176;BME280;19910;42.652;23.332;2023-02-04T10:02:20;94096.63;;;4.84;74.56
23176;BME280;19910;42.652;23.332;2023-02-04T10:04:47;94093.66;;;4.85;73.82
23176;BME280;19910;42.652;23.332;2023-02-04T10:07:16;94090.38;;;4.88;72.73
23176;BME280;19910;42.652;23.332;2023-02-04T10:09:48;94095.44;;;4.90;73.27
23176;BME280;19910;42.652;23.332;2023-02-04T10:12:15;94082.06;;;4.98;73.44
23176;BME280;19910;42.652;23.332;2023-02-04T10:14:42;94087.06;;;4.91;72.20
23176;BME280;19910;42.652;23.332;2023-02-04T10:17:10;94082.91;;;4.85;71.98
23176;BME280;19910;42.652;23.332;2023-02-04T10:19:39;94058.66;;;4.90;71.92
23176;BME280;19910;42.652;23.332;2023-02-04T10:22:15;94079.19;;;4.95;72.34
23176;BME280;19910;42.652;23.332;2023-02-04T10:24:42;94076.34;;;4.91;71.87
23176;BME280;19910;42.652;23.332;2023-02-04T10:27:12;94059.88;;;4.84;72.50
23176;BME280;19910;42.652;23.332;2023-02-04T10:29:41;94059.66;;;4.81;72.32
23176;BME280;19910;42.652;23.332;2023-02-04T10:32:24;94067.44;;;5.05;72.32
23176;BME280;19910;42.652;23.332;2023-02-04T10:34:56;94074.31;;;4.97;71.90
23176;BME280;19910;42.652;23.332;2023-02-04T10:37:23;94071.31;;;4.98;72.34
23176;BME280;19910;42.652;23.332;2023-02-04T10:39:50;94069.84;;;5.15;73.37
23176;BME280;19910;42.652;23.332;2023-02-04T10:42:22;94078.94;;;4.83;75.25
23176;BME280;19910;42.652;23.332;2023-02-04T10:44:49;94062.75;;;4.52;77.44
23176;BME280;19910;42.652;23.332;2023-02-04T10:47:18;94083.25;;;4.48;78.46
23176;BME280;19910;42.652;23.332;2023-02-04T10:49:54;94065.44;;;4.52;80.09
23176;BME280;19910;42.652;23.332;2023-02-04T10:52:22;94071.09;;;4.64;79.20
23176;BME280;19910;42.652;23.332;2023-02-04T10:54:52;94058.16;;;4.66;79.57
23176;BME280;19910;42.652;23.332;2023-02-04T10:57:21;94061.91;;;4.65;78.93
23176;BME280;19910;42.652;23.332;2023-02-04T10:59:50;94050.72;;;4.85;79.69
23176;BME280;19910;42.652;23.332;2023-02-04T11:02:41;94052.41;;;4.59;77.10
23176;BME280;19910;42.652;23.332;2023-02-04T11:05:14;94049.75;;;4.59;77.98
23176;BME280;19910;42.652;23.332;2023-02-04T11:07:41;94044.03;;;4.74;78.10
23176;BME280;19910;42.652;23.332;2023-02-04T11:10:13;94039.31;;;4.80;76.29
23176;BME280;19910;42.652;23.332;2023-02-04T11:12:44;94042.78;;;4.80;75.64
23176;BME280;19910;42.652;23.332;2023-02-04T11:15:38;94041.31;;;4.96;76.09
23176;BME280;19910;42.652;23.332;2023-02-04T11:18:06;94038.38;;;5.07;75.40
23176;BME280;19910;42.652;23.332;2023-02-04T11:20:33;94035.78;;;5.24;74.30
23176;BME280;19910;42.652;23.332;2023-02-04T11:23:32;94020.13;;;5.17;73.43
23176;BME280;19910;42.652;23.332;2023-02-04T11:26:02;94022.25;;;5.29;73.85
23176;BME280;19910;42.652;23.332;2023-02-04T11:28:39;94030.50;;;5.41;74.11
23176;BME280;19910;42.652;23.332;2023-02-04T11:31:24;94030.91;;;5.65;73.11
23176;BME280;19910;42.652;23.332;2023-02-04T11:34:06;94025.91;;;5.42;74.03
23176;BME280;19910;42.652;23.332;2023-02-04T11:36:34;94037.19;;;5.21;74.15
23176;BME280;19910;42.652;23.332;2023-02-04T11:39:10;94036.31;;;5.04;74.75
23176;BME280;19910;42.652;23.332;2023-02-04T11:41:43;94031.19;;;4.93;74.63
23176;BME280;19910;42.652;23.332;2023-02-04T11:44:12;94038.06;;;4.77;75.56
23176;BME280;19910;42.652;23.332;2023-02-04T11:46:39;94056.69;;;4.82;76.38
23176;BME280;19910;42.652;23.332;2023-02-04T11:49:14;94038.66;;;4.74;76.42
23176;BME280;19910;42.652;23.332;2023-02-04T11:51:43;94044.13;;;4.91;76.43
23176;BME280;19910;42.652;23.332;2023-02-04T11:54:12;94043.34;;;4.91;76.85
23176;BME280;19910;42.652;23.332;2023-02-04T11:56:40;94035.47;;;4.94;76.82
23176;BME280;19910;42.652;23.332;2023-02-04T11:59:08;94043.19;;;5.18;76.76
23176;BME280;19910;42.652;23.332;2023-02-04T12:01:38;94044.00;;;4.96;76.95
23176;BME280;19910;42.652;23.332;2023-02-04T12:04:06;94041.06;;;5.07;77.41
23176;BME280;19910;42.652;23.332;2023-02-04T12:06:35;94035.88;;;4.65;77.98
23176;BME280;19910;42.652;23.332;2023-02-04T12:09:05;94034.19;;;4.47;79.46
23176;BME280;19910;42.652;23.332;2023-02-04T12:11:32;94029.25;;;4.85;80.62
23176;BME280;19910;42.652;23.332;2023-02-04T12:14:07;94034.00;;;4.44;80.42
23176;BME280;19910;42.652;23.332;2023-02-04T12:16:43;94034.25;;;4.34;82.20
23176;BME280;19910;42.652;23.332;2023-02-04T12:19:10;94033.19;;;4.21;82.58
23176;BME280;19910;42.652;23.332;2023-02-04T12:21:38;94038.34;;;4.17;82.18
23176;BME280;19910;42.652;23.332;2023-02-04T12:24:06;94033.84;;;4.26;83.05
23176;BME280;19910;42.652;23.332;2023-02-04T12:26:33;94032.75;;;4.27;82.93
23176;BME280;19910;42.652;23.332;2023-02-04T12:29:00;94033.09;;;4.12;82.85
23176;BME280;19910;42.652;23.332;2023-02-04T12:31:30;94018.88;;;4.25;83.94
23176;BME280;19910;42.652;23.332;2023-02-04T12:33:58;94020.44;;;4.26;82.42
23176;BME280;19910;42.652;23.332;2023-02-04T12:36:25;94014.00;;;4.27;82.21
23176;BME280;19910;42.652;23.332;2023-02-04T12:38:54;94015.22;;;4.21;82.05
23176;BME280;19910;42.652;23.332;2023-02-04T12:41:23;94021.53;;;4.25;81.81
23176;BME280;19910;42.652;23.332;2023-02-04T12:43:49;94022.13;;;4.36;80.58
23176;BME280;19910;42.652;23.332;2023-02-04T12:46:16;94022.53;;;4.52;79.83
23176;BME280;19910;42.652;23.332;2023-02-04T12:48:43;94019.56;;;4.53;78.87
23176;BME280;19910;42.652;23.332;2023-02-04T12:51:11;94023.41;;;4.61;78.75
23176;BME280;19910;42.652;23.332;2023-02-04T12:53:38;94012.25;;;4.68;77.49
23176;BME280;19910;42.652;23.332;2023-02-04T12:56:05;94009.94;;;4.75;76.80
23176;BME280;19910;42.652;23.332;2023-02-04T12:58:32;94018.34;;;4.82;76.45
23176;BME280;19910;42.652;23.332;2023-02-04T13:00:58;94007.78;;;4.85;76.24
23176;BME280;19910;42.652;23.332;2023-02-04T13:03:25;94028.66;;;4.88;76.01
23176;BME280;19910;42.652;23.332;2023-02-04T13:05:52;94012.31;;;4.76;75.74